createdAt,value
2022-12-24T00:00:12.468Z,93563.13
2022-12-24T00:01:10.206Z,93569.69
2022-12-24T00:02:06.943Z,93568.69
2022-12-24T00:03:03.869Z,93573.66
2022-12-24T00:04:00.836Z,93574.91
2022-12-24T00:05:01.178Z,93584.28
2022-12-24T00:05:58.425Z,93581.56
2022-12-24T00:06:55.027Z,93581.94
2022-12-24T00:07:51.677Z,93578.34
2022-12-24T00:08:49.001Z,93540.88
2022-12-24T00:09:45.585Z,93575.47
2022-12-24T00:10:42.154Z,93577.38
2022-12-24T00:11:38.739Z,93584.22
2022-12-24T00:12:35.811Z,93582.66
2022-12-24T00:13:32.456Z,93549.63
2022-12-24T00:14:29.202Z,93585.66
2022-12-24T00:15:25.821Z,93573.78
2022-12-24T00:16:22.559Z,93578.66
2022-12-24T00:17:19.126Z,93576.59
2022-12-24T00:18:16.465Z,93574.06
2022-12-24T00:19:13.253Z,93577.09
2022-12-24T00:20:10.288Z,93581.00
2022-12-24T00:21:07.159Z,93581.47
2022-12-24T00:22:03.784Z,93581.00
2022-12-24T00:23:00.366Z,93585.53
2022-12-24T00:23:57.003Z,93583.84
2022-12-24T00:24:53.717Z,93561.22
2022-12-24T00:25:50.536Z,93551.19
2022-12-24T00:26:47.229Z,93583.72
2022-12-24T00:27:43.866Z,93580.78
2022-12-24T00:28:40.868Z,93570.47
2022-12-24T00:29:37.582Z,93580.50
2022-12-24T00:30:34.452Z,93577.97
2022-12-24T00:31:31.315Z,93573.00
2022-12-24T00:32:27.986Z,93580.69
2022-12-24T00:33:24.971Z,93578.34
2022-12-24T00:34:24.407Z,93565.22
2022-12-24T00:35:21.121Z,93572.59
2022-12-24T00:36:18.723Z,93557.50
2022-12-24T00:37:15.417Z,93567.91
2022-12-24T00:38:12.032Z,93581.16
2022-12-24T00:39:08.744Z,93584.53
2022-12-24T00:40:05.945Z,93580.44
2022-12-24T00:41:04.797Z,93563.25
2022-12-24T00:42:01.425Z,93538.63
2022-12-24T00:42:58.351Z,93545.16
2022-12-24T00:43:59.654Z,93580.94
2022-12-24T00:44:56.250Z,93563.81
2022-12-24T00:45:52.970Z,93582.25
2022-12-24T00:46:49.687Z,93584.00
2022-12-24T00:47:46.266Z,93581.66
2022-12-24T00:48:42.847Z,93585.00
2022-12-24T00:49:39.546Z,93578.75
2022-12-24T00:50:36.127Z,93573.50
2022-12-24T00:51:33.805Z,93588.19
2022-12-24T00:52:30.769Z,93553.06
2022-12-24T00:53:27.437Z,93577.88
2022-12-24T00:54:24.070Z,93571.03
2022-12-24T00:55:20.782Z,93572.59
2022-12-24T00:56:17.792Z,93571.06
2022-12-24T00:57:14.404Z,93578.66
2022-12-24T00:58:12.301Z,93576.69
2022-12-24T00:59:08.872Z,93577.94
2022-12-24T01:00:06.384Z,93574.94
2022-12-24T01:01:03.430Z,93572.22
2022-12-24T01:02:00.290Z,93550.50
2022-12-24T01:02:57.267Z,93581.38
2022-12-24T01:04:14.467Z,93562.88
2022-12-24T01:05:12.170Z,93579.72
2022-12-24T01:06:13.108Z,93542.41
2022-12-24T01:07:09.735Z,93568.91
2022-12-24T01:08:06.396Z,93577.44
2022-12-24T01:09:03.072Z,93577.59
2022-12-24T01:09:59.700Z,93575.47
2022-12-24T01:10:56.836Z,93532.88
2022-12-24T01:11:53.577Z,93589.66
2022-12-24T01:12:50.276Z,93587.53
2022-12-24T01:13:46.928Z,93581.66
2022-12-24T01:14:43.591Z,93579.59
2022-12-24T01:15:40.285Z,93578.78
2022-12-24T01:16:36.941Z,93537.53
2022-12-24T01:17:34.835Z,93578.13
2022-12-24T01:18:31.464Z,93582.13
2022-12-24T01:19:28.181Z,93534.94
2022-12-24T01:20:27.056Z,93565.22
2022-12-24T01:21:23.766Z,93567.94
2022-12-24T01:22:20.387Z,93564.44
2022-12-24T01:23:16.950Z,93571.03
2022-12-24T01:24:15.878Z,93573.34
2022-12-24T01:25:12.698Z,93567.28
2022-12-24T01:26:12.323Z,93554.75
2022-12-24T01:27:09.506Z,93536.28
2022-12-24T01:28:06.610Z,93562.13
2022-12-24T01:29:04.493Z,93513.97
2022-12-24T01:30:01.241Z,93564.13
2022-12-24T01:30:57.923Z,93546.34
2022-12-24T01:31:54.744Z,93568.13
2022-12-24T01:32:51.385Z,93535.31
2022-12-24T01:33:49.275Z,93558.19
2022-12-24T01:34:45.888Z,93562.88
2022-12-24T01:35:43.464Z,93560.56
2022-12-24T01:36:40.170Z,93559.06
2022-12-24T01:37:36.928Z,93560.94
2022-12-24T01:38:33.698Z,93568.72
2022-12-24T01:39:30.478Z,93563.78
2022-12-24T01:40:45.918Z,93555.47
2022-12-24T01:42:01.055Z,93566.66
2022-12-24T01:43:16.478Z,93559.44
2022-12-24T01:44:27.219Z,93568.19
2022-12-24T01:45:40.501Z,93562.25
2022-12-24T01:46:37.147Z,93564.50
2022-12-24T01:47:33.885Z,93559.50
2022-12-24T01:49:04.028Z,93571.81
2022-12-24T01:50:12.944Z,93510.72
2022-12-24T01:51:27.813Z,93568.31
2022-12-24T01:52:28.697Z,93545.50
2022-12-24T01:53:26.027Z,93554.03
2022-12-24T01:54:26.193Z,93557.72
2022-12-24T01:55:23.531Z,93547.63
2022-12-24T01:56:21.330Z,93560.38
2022-12-24T01:57:21.775Z,93564.59
2022-12-24T01:58:20.611Z,93564.53
2022-12-24T01:59:19.343Z,93561.31
2022-12-24T02:00:16.421Z,93529.09
2022-12-24T02:01:13.200Z,93562.50
2022-12-24T02:02:10.860Z,93561.31
2022-12-24T02:03:07.781Z,93568.72
2022-12-24T02:04:13.434Z,93564.63
2022-12-24T02:05:22.610Z,93563.38
2022-12-24T02:06:20.759Z,93529.94
2022-12-24T02:07:17.832Z,93546.84
2022-12-24T02:08:15.542Z,93556.44
2022-12-24T02:09:12.200Z,93534.13
2022-12-24T02:10:12.983Z,93557.25
2022-12-24T02:11:19.058Z,93553.34
2022-12-24T02:12:15.920Z,93557.25
2022-12-24T02:13:14.517Z,93556.91
2022-12-24T02:14:12.086Z,93554.59
2022-12-24T02:15:12.136Z,93553.19
2022-12-24T02:16:30.407Z,93558.69
2022-12-24T02:17:36.183Z,93558.19
2022-12-24T02:18:44.596Z,93549.88
2022-12-24T02:20:04.079Z,93555.13
2022-12-24T02:21:22.191Z,93519.75
2022-12-24T02:22:42.342Z,93561.50
2022-12-24T02:24:02.776Z,93557.81
2022-12-24T02:25:18.101Z,93553.69
2022-12-24T02:26:32.855Z,93555.25
2022-12-24T02:27:55.176Z,93561.50
2022-12-24T02:29:06.719Z,93559.66
2022-12-24T02:30:12.418Z,93562.13
2022-12-24T02:31:16.619Z,93562.13
2022-12-24T02:32:27.334Z,93534.06
2022-12-24T02:33:35.923Z,93567.13
2022-12-24T02:35:09.957Z,93541.69
2022-12-24T02:36:13.591Z,93558.38
2022-12-24T02:37:23.035Z,93498.22
2022-12-24T02:38:19.676Z,93556.38
2022-12-24T02:39:23.834Z,93543.19
2022-12-24T02:40:31.626Z,93549.81
2022-12-24T02:42:08.323Z,93521.81
2022-12-24T02:43:15.113Z,93556.50
2022-12-24T02:44:11.827Z,93560.53
2022-12-24T02:45:13.379Z,93556.19
2022-12-24T02:46:31.916Z,93555.59
2022-12-24T02:47:34.164Z,93554.69
2022-12-24T02:48:31.989Z,93561.72
2022-12-24T02:49:28.605Z,93558.75
2022-12-24T02:50:25.443Z,93547.66
2022-12-24T02:51:25.010Z,93508.19
2022-12-24T02:52:38.043Z,93544.03
2022-12-24T02:53:35.097Z,93547.25
2022-12-24T02:54:32.693Z,93543.72
2022-12-24T02:56:01.460Z,93545.00
2022-12-24T02:57:45.967Z,93543.19
2022-12-24T02:59:01.221Z,93546.00
2022-12-24T03:00:01.630Z,93544.25
2022-12-24T03:01:22.621Z,93548.06
2022-12-24T03:03:07.748Z,93544.75
2022-12-24T03:04:41.395Z,93542.78
2022-12-24T03:05:50.321Z,93489.09
2022-12-24T03:07:06.769Z,93513.84
2022-12-24T03:08:15.442Z,93534.38
2022-12-24T03:09:26.588Z,93536.72
2022-12-24T03:10:52.739Z,93539.91
2022-12-24T03:11:57.739Z,93535.91
2022-12-24T03:13:00.429Z,93492.03
2022-12-24T03:13:59.633Z,93536.47
2022-12-24T03:14:57.130Z,93526.38
2022-12-24T03:15:54.529Z,93519.97
2022-12-24T03:16:51.396Z,93528.72
2022-12-24T03:17:50.102Z,93525.97
2022-12-24T03:18:49.552Z,93525.75
2022-12-24T03:19:47.989Z,93530.91
2022-12-24T03:20:51.289Z,93532.78
2022-12-24T03:21:49.559Z,93528.53
2022-12-24T03:22:46.499Z,93530.56
2022-12-24T03:23:43.217Z,93538.34
2022-12-24T03:24:39.951Z,93503.31
2022-12-24T03:25:40.815Z,93538.34
2022-12-24T03:26:39.195Z,93526.50
2022-12-24T03:27:36.504Z,93530.66
2022-12-24T03:28:33.756Z,93461.66
2022-12-24T03:29:30.391Z,93531.75
2022-12-24T03:30:27.202Z,93536.09
2022-12-24T03:31:24.374Z,93484.16
2022-12-24T03:32:28.487Z,93527.94
2022-12-24T03:33:25.083Z,93531.22
2022-12-24T03:34:21.679Z,93484.81
2022-12-24T03:35:18.498Z,93531.03
2022-12-24T03:36:15.161Z,93529.97
2022-12-24T03:37:11.724Z,93524.13
2022-12-24T03:38:08.324Z,93515.88
2022-12-24T03:39:05.765Z,93521.72
2022-12-24T03:40:02.590Z,93522.88
2022-12-24T03:40:59.960Z,93525.41
2022-12-24T03:41:56.696Z,93534.88
2022-12-24T03:42:53.572Z,93525.88
2022-12-24T03:43:50.231Z,93541.47
2022-12-24T03:44:46.921Z,93532.22
2022-12-24T03:45:43.729Z,93523.19
2022-12-24T03:46:40.539Z,93539.44
2022-12-24T03:47:37.209Z,93539.69
2022-12-24T03:48:35.548Z,93497.84
2022-12-24T03:49:32.205Z,93511.38
2022-12-24T03:50:28.977Z,93542.22
2022-12-24T03:51:26.773Z,93523.34
2022-12-24T03:52:23.399Z,93540.28
2022-12-24T03:53:19.985Z,93540.66
2022-12-24T03:54:16.635Z,93547.16
2022-12-24T03:55:13.496Z,93544.84
2022-12-24T03:56:10.105Z,93544.38
2022-12-24T03:57:06.758Z,93544.78
2022-12-24T03:58:03.374Z,93540.00
2022-12-24T03:58:59.924Z,93542.75
2022-12-24T03:59:56.561Z,93538.44
2022-12-24T04:00:54.286Z,93541.44
2022-12-24T04:01:51.116Z,93543.50
2022-12-24T04:02:48.005Z,93543.41
2022-12-24T04:03:45.177Z,93544.78
2022-12-24T04:04:41.980Z,93531.34
2022-12-24T04:05:38.603Z,93531.38
2022-12-24T04:06:35.305Z,93553.44
2022-12-24T04:07:33.082Z,93552.66
2022-12-24T04:08:29.733Z,93493.78
2022-12-24T04:09:26.380Z,93545.81
2022-12-24T04:10:22.915Z,93559.16
2022-12-24T04:11:19.548Z,93555.97
2022-12-24T04:12:16.170Z,93561.22
2022-12-24T04:13:12.752Z,93554.13
2022-12-24T04:14:09.369Z,93561.81
2022-12-24T04:15:06.608Z,93556.50
2022-12-24T04:16:08.653Z,93558.22
2022-12-24T04:17:05.447Z,93553.94
2022-12-24T04:18:02.147Z,93559.53
2022-12-24T04:18:58.714Z,93561.91
2022-12-24T04:19:56.034Z,93555.50
2022-12-24T04:20:53.308Z,93565.22
2022-12-24T04:21:49.974Z,93540.38
2022-12-24T04:22:46.724Z,93570.66
2022-12-24T04:23:43.893Z,93562.34
2022-12-24T04:24:40.555Z,93566.69
2022-12-24T04:25:37.323Z,93565.03
2022-12-24T04:26:34.109Z,93564.88
2022-12-24T04:27:31.308Z,93573.03
2022-12-24T04:28:29.915Z,93568.19
2022-12-24T04:29:26.710Z,93575.38
2022-12-24T04:30:23.318Z,93562.75
2022-12-24T04:31:20.231Z,93545.25
2022-12-24T04:32:17.031Z,93579.38
2022-12-24T04:33:13.811Z,93561.09
2022-12-24T04:34:10.545Z,93570.59
2022-12-24T04:35:07.498Z,93568.03
2022-12-24T04:36:06.754Z,93570.59
2022-12-24T04:37:03.999Z,93575.53
2022-12-24T04:38:00.621Z,93578.91
2022-12-24T04:38:57.297Z,93586.41
2022-12-24T04:39:54.087Z,93581.03
2022-12-24T04:41:08.754Z,93573.72
2022-12-24T04:42:05.487Z,93577.47
2022-12-24T04:43:05.448Z,93582.28
2022-12-24T04:44:02.211Z,93563.56
2022-12-24T04:44:58.846Z,93587.59
2022-12-24T04:45:55.842Z,93586.47
2022-12-24T04:46:52.536Z,93566.41
2022-12-24T04:47:49.233Z,93578.41
2022-12-24T04:48:48.178Z,93583.78
2022-12-24T04:49:44.776Z,93580.09
2022-12-24T04:50:41.378Z,93584.69
2022-12-24T04:51:38.133Z,93576.34
2022-12-24T04:52:35.079Z,93551.53
2022-12-24T04:53:32.279Z,93579.81
2022-12-24T04:54:28.942Z,93585.78
2022-12-24T04:55:25.512Z,93582.59
2022-12-24T04:56:24.929Z,93585.56
2022-12-24T04:57:21.561Z,93586.69
2022-12-24T04:58:18.175Z,93594.41
2022-12-24T04:59:14.820Z,93596.91
2022-12-24T05:00:12.049Z,93573.16
2022-12-24T05:01:13.521Z,93581.72
2022-12-24T05:02:10.398Z,93566.91
2022-12-24T05:03:07.256Z,93547.06
2022-12-24T05:04:03.955Z,93583.56
2022-12-24T05:05:00.580Z,93574.63
2022-12-24T05:06:05.316Z,93579.69
2022-12-24T05:07:01.943Z,93581.50
2022-12-24T05:07:58.555Z,93580.09
2022-12-24T05:08:56.750Z,93582.06
2022-12-24T05:09:53.384Z,93575.50
2022-12-24T05:10:57.574Z,93550.81
2022-12-24T05:11:54.220Z,93569.03
2022-12-24T05:12:50.845Z,93533.81
2022-12-24T05:13:48.257Z,93550.03
2022-12-24T05:14:44.953Z,93560.75
2022-12-24T05:15:41.707Z,93566.06
2022-12-24T05:16:38.904Z,93547.91
2022-12-24T05:17:35.567Z,93547.78
2022-12-24T05:18:32.264Z,93544.50
2022-12-24T05:19:28.963Z,93548.00
2022-12-24T05:20:25.553Z,93539.25
2022-12-24T05:21:23.932Z,93542.84
2022-12-24T05:22:39.095Z,93543.09
2022-12-24T05:23:55.558Z,93540.94
2022-12-24T05:25:15.204Z,93532.56
2022-12-24T05:26:26.601Z,93533.81
2022-12-24T05:27:23.294Z,93530.53
2022-12-24T05:28:19.917Z,93541.84
2022-12-24T05:29:16.621Z,93546.53
2022-12-24T05:30:13.411Z,93547.31
2022-12-24T05:31:10.104Z,93548.47
2022-12-24T05:32:06.725Z,93539.53
2022-12-24T05:33:03.523Z,93558.53
2022-12-24T05:34:01.502Z,93551.97
2022-12-24T05:34:58.164Z,93554.13
2022-12-24T05:35:54.812Z,93560.16
2022-12-24T05:36:51.454Z,93549.00
2022-12-24T05:37:48.100Z,93551.06
2022-12-24T05:38:44.661Z,93550.19
2022-12-24T05:39:41.247Z,93559.38
2022-12-24T05:40:37.813Z,93551.88
2022-12-24T05:41:34.362Z,93550.84
2022-12-24T05:42:31.062Z,93551.50
2022-12-24T05:43:27.761Z,93556.09
2022-12-24T05:44:24.367Z,93513.41
2022-12-24T05:45:21.070Z,93547.84
2022-12-24T05:46:20.259Z,93551.56
2022-12-24T05:47:16.911Z,93518.00
2022-12-24T05:48:13.525Z,93550.91
2022-12-24T05:49:10.436Z,93544.53
2022-12-24T05:50:07.625Z,93551.94
2022-12-24T05:51:08.870Z,93545.53
2022-12-24T05:52:05.572Z,93545.03
2022-12-24T05:53:02.166Z,93510.13
2022-12-24T05:53:58.786Z,93520.06
2022-12-24T05:54:55.392Z,93545.16
2022-12-24T05:55:51.944Z,93542.41
2022-12-24T05:56:48.525Z,93548.78
2022-12-24T05:57:45.148Z,93542.03
2022-12-24T05:58:42.759Z,93546.81
2022-12-24T05:59:39.343Z,93556.88
2022-12-24T06:00:35.964Z,93553.22
2022-12-24T06:01:32.634Z,93552.75
2022-12-24T06:02:29.343Z,93561.53
2022-12-24T06:03:25.976Z,93561.94
2022-12-24T06:04:28.426Z,93546.34
2022-12-24T06:05:25.640Z,93557.53
2022-12-24T06:06:24.718Z,93566.63
2022-12-24T06:07:21.570Z,93558.63
2022-12-24T06:08:18.348Z,93562.78
2022-12-24T06:09:15.300Z,93530.53
2022-12-24T06:10:11.910Z,93563.66
2022-12-24T06:11:12.009Z,93560.91
2022-12-24T06:12:08.649Z,93563.81
2022-12-24T06:13:05.242Z,93530.19
2022-12-24T06:14:01.866Z,93562.19
2022-12-24T06:14:58.411Z,93545.84
2022-12-24T06:15:59.968Z,93567.34
2022-12-24T06:16:56.560Z,93561.91
2022-12-24T06:17:53.135Z,93562.50
2022-12-24T06:18:50.108Z,93575.03
2022-12-24T06:19:46.723Z,93564.53
2022-12-24T06:20:43.353Z,93574.06
2022-12-24T06:21:40.011Z,93578.38
2022-12-24T06:22:36.615Z,93575.63
2022-12-24T06:23:35.258Z,93544.97
2022-12-24T06:24:31.933Z,93568.63
2022-12-24T06:25:28.513Z,93574.28
2022-12-24T06:26:25.087Z,93584.78
2022-12-24T06:27:21.773Z,93584.50
2022-12-24T06:28:18.838Z,93566.88
2022-12-24T06:29:15.478Z,93580.41
2022-12-24T06:30:12.311Z,93579.44
2022-12-24T06:31:13.136Z,93578.84
2022-12-24T06:32:09.781Z,93581.97
2022-12-24T06:33:06.418Z,93588.00
2022-12-24T06:34:08.470Z,93589.16
2022-12-24T06:35:05.283Z,93588.16
2022-12-24T06:36:04.377Z,93595.38
2022-12-24T06:37:01.000Z,93586.16
2022-12-24T06:37:57.656Z,93593.44
2022-12-24T06:38:55.470Z,93584.38
2022-12-24T06:39:52.046Z,93588.59
2022-12-24T06:40:48.863Z,93590.97
2022-12-24T06:41:45.509Z,93591.22
2022-12-24T06:42:42.123Z,93588.66
2022-12-24T06:43:38.775Z,93585.09
2022-12-24T06:44:35.579Z,93582.97
2022-12-24T06:45:32.294Z,93596.34
2022-12-24T06:46:29.087Z,93597.84
2022-12-24T06:47:25.861Z,93597.22
2022-12-24T06:48:22.612Z,93594.22
2022-12-24T06:49:19.203Z,93577.88
2022-12-24T06:50:16.230Z,93596.03
2022-12-24T06:51:14.564Z,93591.00
2022-12-24T06:52:11.163Z,93598.09
2022-12-24T06:53:08.303Z,93597.19
2022-12-24T06:54:04.974Z,93605.28
2022-12-24T06:55:01.785Z,93599.56
2022-12-24T06:56:06.182Z,93598.44
2022-12-24T06:57:02.825Z,93593.38
2022-12-24T06:57:59.463Z,93599.13
2022-12-24T06:59:01.551Z,93595.72
2022-12-24T07:00:01.622Z,93606.25
2022-12-24T07:00:58.195Z,93601.38
2022-12-24T07:01:54.884Z,93597.31
2022-12-24T07:02:51.744Z,93592.72
2022-12-24T07:03:48.628Z,93575.59
2022-12-24T07:04:45.322Z,93599.69
2022-12-24T07:05:42.368Z,93602.25
2022-12-24T07:06:39.022Z,93601.06
2022-12-24T07:07:39.218Z,93566.81
2022-12-24T07:08:36.468Z,93605.59
2022-12-24T07:09:33.204Z,93596.00
2022-12-24T07:10:29.927Z,93586.13
2022-12-24T07:11:26.841Z,93594.03
2022-12-24T07:12:23.510Z,93559.84
2022-12-24T07:13:20.161Z,93597.13
2022-12-24T07:14:16.714Z,93595.91
2022-12-24T07:15:15.048Z,93607.75
2022-12-24T07:16:11.746Z,93603.72
2022-12-24T07:17:08.632Z,93609.50
2022-12-24T07:18:05.354Z,93599.00
2022-12-24T07:19:04.036Z,93607.56
2022-12-24T07:20:00.675Z,93611.34
2022-12-24T07:20:58.176Z,93594.56
2022-12-24T07:21:54.728Z,93605.34
2022-12-24T07:22:51.307Z,93582.22
2022-12-24T07:23:47.925Z,93606.38
2022-12-24T07:24:44.501Z,93601.81
2022-12-24T07:25:43.048Z,93605.72
2022-12-24T07:26:39.718Z,93604.31
2022-12-24T07:27:37.007Z,93602.75
2022-12-24T07:28:34.018Z,93612.13
2022-12-24T07:29:30.703Z,93606.16
2022-12-24T07:30:27.372Z,93597.44
2022-12-24T07:31:23.979Z,93608.78
2022-12-24T07:32:20.845Z,93609.59
2022-12-24T07:33:17.437Z,93611.81
2022-12-24T07:34:14.068Z,93617.50
2022-12-24T07:35:10.768Z,93617.75
2022-12-24T07:36:10.659Z,93614.16
2022-12-24T07:37:07.884Z,93613.81
2022-12-24T07:38:04.483Z,93608.50
2022-12-24T07:39:01.114Z,93608.03
2022-12-24T07:39:57.762Z,93620.19
2022-12-24T07:40:54.741Z,93611.31
2022-12-24T07:41:51.445Z,93613.94
2022-12-24T07:42:48.002Z,93610.38
2022-12-24T07:43:44.785Z,93609.81
2022-12-24T07:44:41.429Z,93596.06
2022-12-24T07:45:39.523Z,93625.78
2022-12-24T07:46:36.195Z,93599.66
2022-12-24T07:47:33.051Z,93622.09
2022-12-24T07:48:30.964Z,93600.13
2022-12-24T07:49:27.692Z,93626.94
2022-12-24T07:50:24.384Z,93596.38
2022-12-24T07:51:21.043Z,93619.88
2022-12-24T07:52:17.674Z,93620.88
2022-12-24T07:53:14.236Z,93628.38
2022-12-24T07:54:10.964Z,93618.09
2022-12-24T07:55:07.888Z,93623.00
2022-12-24T07:56:10.470Z,93623.63
2022-12-24T07:57:09.267Z,93631.19
2022-12-24T07:58:05.984Z,93640.72
2022-12-24T07:59:02.579Z,93631.72
2022-12-24T07:59:59.259Z,93635.91
2022-12-24T08:00:58.155Z,93635.88
2022-12-24T08:01:54.867Z,93644.16
2022-12-24T08:02:51.775Z,93642.25
2022-12-24T08:03:48.622Z,93642.16
2022-12-24T08:04:45.435Z,93641.78
2022-12-24T08:05:42.083Z,93645.22
2022-12-24T08:06:39.342Z,93643.53
2022-12-24T08:07:35.954Z,93643.19
2022-12-24T08:08:32.525Z,93644.75
2022-12-24T08:09:35.359Z,93640.69
2022-12-24T08:10:31.921Z,93639.00
2022-12-24T08:11:28.635Z,93636.84
2022-12-24T08:12:25.364Z,93646.19
2022-12-24T08:13:21.973Z,93647.84
2022-12-24T08:14:18.624Z,93604.94
2022-12-24T08:15:15.320Z,93649.41
2022-12-24T08:16:12.233Z,93649.75
2022-12-24T08:17:09.017Z,93652.59
2022-12-24T08:18:05.754Z,93640.75
2022-12-24T08:19:02.407Z,93645.97
2022-12-24T08:19:59.072Z,93610.19
2022-12-24T08:20:55.668Z,93640.81
2022-12-24T08:21:52.255Z,93648.09
2022-12-24T08:22:48.853Z,93659.59
2022-12-24T08:23:47.270Z,93640.28
2022-12-24T08:24:43.943Z,93610.88
2022-12-24T08:25:45.412Z,93642.97
2022-12-24T08:26:42.285Z,93618.97
2022-12-24T08:27:39.101Z,93643.84
2022-12-24T08:28:36.563Z,93636.28
2022-12-24T08:29:33.202Z,93633.72
2022-12-24T08:30:30.225Z,93635.06
2022-12-24T08:31:26.990Z,93636.53
2022-12-24T08:32:23.754Z,93636.28
2022-12-24T08:33:20.895Z,93637.84
2022-12-24T08:34:17.453Z,93639.56
2022-12-24T08:35:14.212Z,93632.78
2022-12-24T08:36:10.862Z,93635.22
2022-12-24T08:37:07.439Z,93642.13
2022-12-24T08:38:04.128Z,93624.69
2022-12-24T08:39:03.935Z,93626.97
2022-12-24T08:40:00.588Z,93627.56
2022-12-24T08:40:57.298Z,93624.81
2022-12-24T08:41:54.021Z,93620.66
2022-12-24T08:42:50.807Z,93626.84
2022-12-24T08:43:47.427Z,93625.75
2022-12-24T08:44:44.297Z,93623.09
2022-12-24T08:45:41.327Z,93582.38
2022-12-24T08:46:38.017Z,93589.81
2022-12-24T08:47:34.704Z,93634.16
2022-12-24T08:48:32.974Z,93638.72
2022-12-24T08:49:29.579Z,93628.31
2022-12-24T08:50:28.467Z,93644.88
2022-12-24T08:51:25.133Z,93644.69
2022-12-24T08:52:21.731Z,93637.41
2022-12-24T08:53:18.356Z,93645.69
2022-12-24T08:54:15.031Z,93642.56
2022-12-24T08:55:11.686Z,93645.44
2022-12-24T08:56:10.387Z,93649.94
2022-12-24T08:57:07.006Z,93640.75
2022-12-24T08:58:03.693Z,93649.44
2022-12-24T08:59:01.341Z,93648.03
2022-12-24T08:59:57.902Z,93656.41
2022-12-24T09:00:54.451Z,93658.03
2022-12-24T09:01:51.222Z,93645.56
2022-12-24T09:02:48.175Z,93653.53
2022-12-24T09:03:45.100Z,93651.00
2022-12-24T09:04:41.962Z,93654.13
2022-12-24T09:05:40.260Z,93658.06
2022-12-24T09:06:36.903Z,93659.31
2022-12-24T09:07:33.594Z,93662.59
2022-12-24T09:08:30.173Z,93659.75
2022-12-24T09:09:34.114Z,93661.09
2022-12-24T09:10:34.338Z,93654.91
2022-12-24T09:11:31.822Z,93652.88
2022-12-24T09:12:29.043Z,93656.47
2022-12-24T09:13:25.653Z,93652.09
2022-12-24T09:14:22.338Z,93648.19
2022-12-24T09:15:19.590Z,93651.91
2022-12-24T09:16:16.380Z,93649.50
2022-12-24T09:17:13.073Z,93615.53
2022-12-24T09:18:10.698Z,93651.03
2022-12-24T09:19:07.392Z,93635.22
2022-12-24T09:20:07.029Z,93646.91
2022-12-24T09:21:08.134Z,93644.28
2022-12-24T09:22:04.977Z,93650.28
2022-12-24T09:23:01.671Z,93642.31
2022-12-24T09:24:00.441Z,93645.06
2022-12-24T09:24:57.169Z,93645.84
2022-12-24T09:25:53.799Z,93618.50
2022-12-24T09:26:57.344Z,93593.38
2022-12-24T09:27:54.439Z,93634.91
2022-12-24T09:28:52.698Z,93639.03
2022-12-24T09:29:49.315Z,93632.88
2022-12-24T09:30:45.883Z,93633.47
2022-12-24T09:31:43.393Z,93634.13
2022-12-24T09:32:40.153Z,93624.16
2022-12-24T09:33:39.042Z,93645.00
2022-12-24T09:34:35.712Z,93647.66
2022-12-24T09:35:32.382Z,93634.44
2022-12-24T09:36:28.945Z,93642.38
2022-12-24T09:37:25.751Z,93640.22
2022-12-24T09:38:22.461Z,93643.31
2022-12-24T09:39:19.064Z,93642.97
2022-12-24T09:40:26.008Z,93640.81
2022-12-24T09:41:29.569Z,93642.06
2022-12-24T09:42:41.174Z,93636.59
2022-12-24T09:43:38.077Z,93634.25
2022-12-24T09:44:49.409Z,93601.19
2022-12-24T09:46:13.775Z,93628.38
2022-12-24T09:47:22.601Z,93625.91
2022-12-24T09:48:24.306Z,93586.41
2022-12-24T09:49:31.911Z,93620.28
2022-12-24T09:50:53.261Z,93619.06
2022-12-24T09:51:55.551Z,93625.09
2022-12-24T09:52:52.588Z,93626.34
2022-12-24T09:53:56.864Z,93622.47
2022-12-24T09:55:08.350Z,93630.72
2022-12-24T09:56:12.144Z,93626.19
2022-12-24T09:57:21.986Z,93632.75
2022-12-24T09:58:35.422Z,93587.97
2022-12-24T09:59:52.426Z,93631.97
2022-12-24T10:00:50.511Z,93633.50
2022-12-24T10:01:49.499Z,93634.31
2022-12-24T10:02:46.601Z,93639.44
2022-12-24T10:03:44.083Z,93641.44
2022-12-24T10:04:42.864Z,93641.75
2022-12-24T10:05:51.500Z,93637.72
2022-12-24T10:06:59.204Z,93642.97
2022-12-24T10:08:08.756Z,93636.41
2022-12-24T10:09:29.795Z,93638.59
2022-12-24T10:10:43.017Z,93634.94
2022-12-24T10:11:46.402Z,93629.72
2022-12-24T10:12:58.410Z,93610.50
2022-12-24T10:14:27.153Z,93635.34
2022-12-24T10:15:42.524Z,93635.13
2022-12-24T10:17:14.315Z,93625.78
2022-12-24T10:18:26.236Z,93628.78
2022-12-24T10:19:33.803Z,93614.94
2022-12-24T10:20:42.180Z,93607.66
2022-12-24T10:22:07.977Z,93608.97
2022-12-24T10:23:46.560Z,93608.31
2022-12-24T10:24:56.441Z,93612.81
2022-12-24T10:26:08.277Z,93610.28
2022-12-24T10:27:15.099Z,93610.97
2022-12-24T10:28:18.291Z,93612.34
2022-12-24T10:29:28.192Z,93610.47
2022-12-24T10:30:25.313Z,93614.72
2022-12-24T10:31:41.632Z,93607.69
2022-12-24T10:32:39.026Z,93600.31
2022-12-24T10:33:43.051Z,93588.25
2022-12-24T10:34:53.609Z,93570.38
2022-12-24T10:35:55.050Z,93601.19
2022-12-24T10:36:52.003Z,93601.81
2022-12-24T10:37:51.081Z,93597.28
2022-12-24T10:38:47.816Z,93608.44
2022-12-24T10:39:44.627Z,93607.66
2022-12-24T10:40:44.952Z,93599.59
2022-12-24T10:41:41.817Z,93586.22
2022-12-24T10:42:50.890Z,93538.38
2022-12-24T10:43:48.964Z,93544.53
2022-12-24T10:44:50.744Z,93599.13
2022-12-24T10:45:55.692Z,93562.56
2022-12-24T10:46:52.300Z,93589.28
2022-12-24T10:47:54.775Z,93588.69
2022-12-24T10:48:53.455Z,93579.34
2022-12-24T10:50:14.013Z,93582.91
2022-12-24T10:51:40.469Z,93584.75
2022-12-24T10:52:40.580Z,93584.41
2022-12-24T10:53:43.138Z,93593.56
2022-12-24T10:55:11.447Z,93522.41
2022-12-24T10:56:10.662Z,93596.78
2022-12-24T10:57:25.467Z,93588.31
2022-12-24T10:58:22.190Z,93597.63
2022-12-24T10:59:29.375Z,93597.13
2022-12-24T11:00:30.237Z,93597.28
2022-12-24T11:01:45.510Z,93603.84
2022-12-24T11:02:42.335Z,93596.50
2022-12-24T11:03:39.953Z,93606.63
2022-12-24T11:04:51.941Z,93595.25
2022-12-24T11:06:14.043Z,93618.81
2022-12-24T11:07:19.835Z,93608.59
2022-12-24T11:08:20.296Z,93595.38
2022-12-24T11:09:36.555Z,93616.47
2022-12-24T11:10:36.813Z,93581.31
2022-12-24T11:11:35.544Z,93607.53
2022-12-24T11:12:40.236Z,93608.31
2022-12-24T11:13:52.231Z,93457.75
2022-12-24T11:14:59.070Z,93593.63
2022-12-24T11:16:16.469Z,93597.22
2022-12-24T11:17:23.794Z,93576.50
2022-12-24T11:18:20.486Z,93590.44
2022-12-24T11:19:20.683Z,93595.22
2022-12-24T11:20:26.422Z,93570.72
2022-12-24T11:21:26.296Z,93585.13
2022-12-24T11:22:30.753Z,93602.06
2022-12-24T11:23:29.165Z,93604.50
2022-12-24T11:24:34.932Z,93520.69
2022-12-24T11:25:40.206Z,93587.13
2022-12-24T11:26:36.846Z,93604.00
2022-12-24T11:27:39.186Z,93606.38
2022-12-24T11:28:37.342Z,93607.16
2022-12-24T11:29:34.033Z,93563.50
2022-12-24T11:30:32.209Z,93601.03
2022-12-24T11:31:29.489Z,93595.47
2022-12-24T11:32:26.171Z,93599.47
2022-12-24T11:33:23.266Z,93597.03
2022-12-24T11:34:30.611Z,93602.06
2022-12-24T11:35:29.558Z,93608.00
2022-12-24T11:36:27.716Z,93563.25
2022-12-24T11:37:25.181Z,93608.88
2022-12-24T11:38:25.192Z,93607.59
2022-12-24T11:39:24.807Z,93608.59
2022-12-24T11:40:23.998Z,93569.91
2022-12-24T11:41:20.875Z,93607.59
2022-12-24T11:42:32.839Z,93615.72
2022-12-24T11:43:44.673Z,93613.97
2022-12-24T11:44:49.050Z,93607.59
2022-12-24T11:45:51.848Z,93602.78